createdAt,value
2019-03-16T00:03:15.216Z,18.48
2019-03-16T00:08:15.847Z,18.47
2019-03-16T00:13:16.572Z,18.47
2019-03-16T00:18:17.152Z,18.46
2019-03-16T00:23:17.602Z,18.46
2019-03-16T00:28:18.283Z,18.46
2019-03-16T00:33:18.920Z,18.45
2019-03-16T00:38:19.329Z,18.45
2019-03-16T00:43:19.774Z,18.45
2019-03-16T00:48:20.219Z,18.46
2019-03-16T00:53:20.654Z,18.45
2019-03-16T00:58:21.110Z,18.46
2019-03-16T01:03:21.536Z,18.44
2019-03-16T01:08:21.935Z,18.44
2019-03-16T01:13:22.430Z,18.45
2019-03-16T01:18:22.858Z,18.45
2019-03-16T01:23:23.236Z,18.44
2019-03-16T01:28:23.773Z,18.44
2019-03-16T01:33:24.226Z,18.44
2019-03-16T01:38:24.654Z,18.43
2019-03-16T01:43:25.083Z,18.45
2019-03-16T01:48:25.545Z,18.44
2019-03-16T01:53:25.995Z,18.43
2019-03-16T01:58:26.446Z,18.43
2019-03-16T02:03:26.880Z,18.44
2019-03-16T02:08:27.542Z,18.43
2019-03-16T02:13:27.967Z,18.42
2019-03-16T02:18:28.398Z,18.42
2019-03-16T02:23:29.073Z,18.42
2019-03-16T02:28:29.708Z,18.42
2019-03-16T02:33:30.376Z,18.42
2019-03-16T02:38:31.023Z,18.41
2019-03-16T02:43:31.441Z,18.41
2019-03-16T02:48:32.126Z,18.42
2019-03-16T02:53:32.559Z,18.41
2019-03-16T02:58:32.988Z,18.41
2019-03-16T03:03:33.442Z,18.40
2019-03-16T03:08:33.884Z,18.41
2019-03-16T03:13:34.300Z,18.42
2019-03-16T03:18:34.767Z,18.41
2019-03-16T03:23:35.425Z,18.41
2019-03-16T03:28:36.069Z,18.40
2019-03-16T03:33:57.421Z,18.40
2019-03-16T03:38:37.172Z,18.41
2019-03-16T03:43:37.858Z,18.41
2019-03-16T03:48:38.468Z,18.40
2019-03-16T03:53:41.142Z,18.41
2019-03-16T03:58:40.138Z,18.41
2019-03-16T04:03:40.531Z,18.40
2019-03-16T04:08:41.258Z,18.40
2019-03-16T04:13:42.033Z,18.40
2019-03-16T04:18:43.073Z,18.39
2019-03-16T04:23:43.630Z,18.40
2019-03-16T04:28:44.462Z,18.40
2019-03-16T04:33:45.121Z,18.40
2019-03-16T04:38:45.747Z,18.40
2019-03-16T04:43:46.180Z,18.40
2019-03-16T04:48:46.670Z,18.40
2019-03-16T04:53:47.088Z,18.40
2019-03-16T04:58:47.521Z,18.39
2019-03-16T05:03:47.956Z,18.39
2019-03-16T05:08:48.426Z,18.39
2019-03-16T05:13:48.862Z,18.40
2019-03-16T05:18:49.313Z,18.39
2019-03-16T05:23:49.753Z,18.40
2019-03-16T05:28:50.211Z,18.39
2019-03-16T05:33:50.617Z,18.40
2019-03-16T05:38:51.070Z,18.39
2019-03-16T05:43:51.531Z,18.38
2019-03-16T05:48:51.969Z,18.41
2019-03-16T05:53:52.403Z,18.39
2019-03-16T05:58:52.859Z,18.39
2019-03-16T06:03:53.296Z,18.39
2019-03-16T06:08:53.732Z,18.39
2019-03-16T06:13:54.445Z,18.40
2019-03-16T06:18:55.266Z,18.39
2019-03-16T06:23:55.953Z,18.40
2019-03-16T06:28:56.739Z,18.39
2019-03-16T06:33:57.454Z,18.40
2019-03-16T06:38:58.247Z,18.38
2019-03-16T06:43:58.928Z,18.41
2019-03-16T06:48:59.894Z,18.39
2019-03-16T06:54:00.655Z,18.41
2019-03-16T06:59:01.255Z,18.40
2019-03-16T07:04:01.709Z,18.42
2019-03-16T07:09:02.343Z,18.42
2019-03-16T07:14:02.994Z,18.41
2019-03-16T07:19:03.653Z,18.40
2019-03-16T07:24:04.076Z,18.40
2019-03-16T07:29:04.928Z,18.40
2019-03-16T07:34:05.387Z,18.42
2019-03-16T07:39:06.035Z,18.40
2019-03-16T07:44:06.674Z,18.40
2019-03-16T07:49:07.348Z,18.40
2019-03-16T07:54:07.972Z,18.42
2019-03-16T07:59:08.421Z,18.41
2019-03-16T08:04:09.077Z,18.41
2019-03-16T08:09:09.768Z,18.42
2019-03-16T08:14:10.618Z,18.42
2019-03-16T08:19:11.423Z,18.43
2019-03-16T08:24:12.058Z,18.42
2019-03-16T08:29:12.722Z,18.39
2019-03-16T08:34:13.204Z,18.42
2019-03-16T08:39:13.720Z,18.42
2019-03-16T08:44:14.153Z,18.43
2019-03-16T08:49:14.793Z,18.43
2019-03-16T08:54:15.452Z,18.42
2019-03-16T08:59:15.921Z,18.42
2019-03-16T09:04:16.327Z,18.42
2019-03-16T09:09:16.783Z,18.43
2019-03-16T09:14:17.212Z,18.42
2019-03-16T09:19:17.671Z,18.43
2019-03-16T09:24:18.177Z,18.43
2019-03-16T09:29:18.771Z,18.44
2019-03-16T09:34:19.204Z,18.44
2019-03-16T09:39:19.660Z,18.45
2019-03-16T09:44:20.102Z,18.46
2019-03-16T09:49:20.599Z,18.46
2019-03-16T09:54:21.205Z,18.46
2019-03-16T09:59:21.620Z,18.52
2019-03-16T10:04:22.091Z,18.53
2019-03-16T10:09:22.799Z,18.55
2019-03-16T10:14:23.589Z,18.55
2019-03-16T10:19:24.029Z,18.57
2019-03-16T10:24:24.473Z,18.58
2019-03-16T10:29:25.136Z,18.58
2019-03-16T10:34:25.634Z,18.56
2019-03-16T10:39:26.016Z,18.58
2019-03-16T10:44:26.444Z,18.58
2019-03-16T10:49:26.957Z,18.58
2019-03-16T10:54:27.754Z,18.59
2019-03-16T10:59:28.396Z,18.60
2019-03-16T11:04:28.863Z,18.60
2019-03-16T11:09:29.270Z,18.58
2019-03-16T11:14:29.755Z,18.58
2019-03-16T11:19:30.166Z,18.58
2019-03-16T11:24:30.598Z,18.58
2019-03-16T11:29:31.076Z,18.58
2019-03-16T11:34:31.524Z,18.58
2019-03-16T11:39:32.318Z,18.58
2019-03-16T11:44:32.996Z,18.57
2019-03-16T11:49:33.439Z,18.58
2019-03-16T11:54:33.891Z,18.58
2019-03-16T11:59:34.338Z,18.59
2019-03-16T12:04:34.835Z,18.57
2019-03-16T12:09:35.285Z,18.57
2019-03-16T12:14:35.878Z,18.56
2019-03-16T12:19:36.323Z,18.56
2019-03-16T12:24:36.773Z,18.55
2019-03-16T12:29:37.201Z,18.58
2019-03-16T12:34:37.658Z,18.54
2019-03-16T12:39:38.077Z,18.57
2019-03-16T12:44:38.529Z,18.54
2019-03-16T12:49:38.976Z,18.52
2019-03-16T12:54:39.415Z,18.54
2019-03-16T12:59:46.748Z,18.55
2019-03-16T13:04:40.304Z,18.54
2019-03-16T13:09:42.378Z,18.52
2019-03-16T13:14:41.426Z,18.52
2019-03-16T13:19:41.907Z,18.54
2019-03-16T13:24:42.492Z,18.50
2019-03-16T13:29:42.935Z,18.51
2019-03-16T13:34:43.364Z,18.49
2019-03-16T13:39:43.824Z,18.53
2019-03-16T13:44:44.265Z,18.51
2019-03-16T14:03:44.003Z,18.94
2019-03-16T14:08:44.800Z,18.87
2019-03-16T14:13:45.282Z,18.76
2019-03-16T14:18:46.563Z,18.72
2019-03-16T14:23:47.483Z,18.64
2019-03-16T14:28:48.042Z,18.58
2019-03-16T14:33:48.524Z,18.57
2019-03-16T14:38:48.924Z,18.54
2019-03-16T14:43:49.362Z,18.52
2019-03-16T14:48:49.852Z,18.53
2019-03-16T14:53:50.483Z,18.50
2019-03-16T14:58:50.924Z,18.44
2019-03-16T15:03:51.287Z,18.42
2019-03-16T15:08:51.816Z,18.45
2019-03-16T15:13:52.266Z,18.45
2019-03-16T15:18:52.727Z,18.53
2019-03-16T15:23:53.325Z,18.52
2019-03-16T15:28:55.224Z,18.49
2019-03-16T15:33:54.055Z,18.50
2019-03-16T15:38:54.823Z,18.47
2019-03-16T15:43:55.928Z,18.47
2019-03-16T15:48:56.966Z,18.53
2019-03-16T15:53:58.282Z,18.51
2019-03-16T15:58:59.118Z,18.55
2019-03-16T16:08:24.552Z,18.81
2019-03-16T16:13:25.001Z,18.73
2019-03-16T16:18:25.487Z,18.65
2019-03-16T16:23:26.239Z,18.58
2019-03-16T16:28:26.756Z,18.58
2019-03-16T16:33:27.451Z,18.58
2019-03-16T16:38:28.334Z,18.51
2019-03-16T16:43:29.270Z,18.53
2019-03-16T16:48:29.774Z,18.51
2019-03-16T16:53:30.404Z,18.52
2019-03-16T16:58:30.934Z,18.50
2019-03-16T17:03:31.300Z,18.45
2019-03-16T17:08:31.779Z,18.44
2019-03-16T17:13:32.397Z,18.45
2019-03-16T17:18:32.844Z,18.52
2019-03-16T17:23:33.495Z,18.43
2019-03-16T17:28:33.949Z,18.43
2019-03-16T17:33:34.336Z,18.44
2019-03-16T17:38:34.716Z,18.42
2019-03-16T17:43:35.263Z,18.41
2019-03-16T17:48:35.659Z,18.41
2019-03-16T17:53:36.489Z,18.54
2019-03-16T17:58:37.001Z,18.53
2019-03-16T18:03:37.435Z,18.54
2019-03-16T18:08:37.916Z,18.52
2019-03-16T18:13:38.334Z,18.52
2019-03-16T18:18:38.775Z,18.49
2019-03-16T18:23:39.248Z,18.47
2019-03-16T18:28:39.943Z,18.46
2019-03-16T18:33:40.540Z,18.49
2019-03-16T18:38:40.966Z,18.44
2019-03-16T18:43:41.413Z,18.43
2019-03-16T18:48:41.841Z,18.44
2019-03-16T18:53:45.447Z,18.44
2019-03-16T18:58:44.300Z,18.44
2019-03-16T19:03:44.655Z,18.41
2019-03-16T19:08:45.254Z,18.42
2019-03-16T19:13:45.697Z,18.43
2019-03-16T19:18:46.168Z,18.42
2019-03-16T19:23:46.631Z,18.42
2019-03-16T19:28:47.055Z,18.41
2019-03-16T19:33:47.608Z,18.43
2019-03-16T19:38:48.179Z,18.41
2019-03-16T19:43:50.338Z,18.41
2019-03-16T19:48:49.286Z,18.40
2019-03-16T19:53:49.835Z,18.41
2019-03-16T19:59:00.199Z,18.39
2019-03-16T20:03:50.734Z,18.39
2019-03-16T20:08:51.236Z,18.39
2019-03-16T20:13:52.033Z,18.40
2019-03-16T20:18:52.826Z,18.39
2019-03-16T20:23:53.495Z,18.39
2019-03-16T20:28:54.013Z,18.38
2019-03-16T20:33:54.510Z,18.40
2019-03-16T20:38:54.910Z,18.41
2019-03-16T20:43:55.363Z,18.40
2019-03-16T20:48:55.984Z,18.39
2019-03-16T20:53:56.427Z,18.37
2019-03-16T20:58:56.828Z,18.37
2019-03-16T21:03:57.305Z,18.40
2019-03-16T21:09:03.028Z,18.39
2019-03-16T21:13:58.130Z,18.37
2019-03-16T21:18:58.665Z,18.39
2019-03-16T21:23:59.110Z,18.39
2019-03-16T21:28:59.552Z,18.38
2019-03-16T21:33:59.974Z,18.37
2019-03-16T21:39:00.382Z,18.40
2019-03-16T21:44:00.891Z,18.38
2019-03-16T21:49:01.283Z,18.39
2019-03-16T21:54:01.766Z,18.38
2019-03-16T21:59:02.204Z,18.37
2019-03-16T22:04:02.641Z,18.37
2019-03-16T22:09:03.102Z,18.36
2019-03-16T22:14:03.542Z,18.38
2019-03-16T22:19:03.938Z,18.37
2019-03-16T22:24:04.424Z,18.38
2019-03-16T22:29:04.849Z,18.38
2019-03-16T22:34:05.305Z,18.36
2019-03-16T22:39:06.174Z,18.38
2019-03-16T22:44:06.621Z,18.37
2019-03-16T22:49:07.224Z,18.36
2019-03-16T22:54:07.687Z,18.37
2019-03-16T22:59:08.143Z,18.36
2019-03-16T23:04:08.785Z,18.36
2019-03-16T23:09:09.478Z,18.36
2019-03-16T23:14:10.285Z,18.38
2019-03-16T23:19:10.938Z,18.37
2019-03-16T23:24:11.590Z,18.35
2019-03-16T23:29:12.239Z,18.36
2019-03-16T23:34:18.969Z,18.36
2019-03-16T23:39:13.520Z,18.36
2019-03-16T23:44:14.035Z,18.35
2019-03-16T23:49:14.612Z,18.36
2019-03-16T23:54:15.073Z,18.36
2019-03-16T23:59:15.722Z,18.35
